sensor_id;sensor_type;location;lat;lon;timestamp;pressure;altitude;pressure_sealevel;temperature;humidity
61805;BME280;47725;47.912;7.356;2022-07-17T00:01:03;99926.70;;;27.26;37.79
61805;BME280;47725;47.912;7.356;2022-07-17T00:05:03;99928.73;;;27.24;37.65
61805;BME280;47725;47.912;7.356;2022-07-17T00:09:03;99931.26;;;27.22;37.71
61805;BME280;47725;47.912;7.356;2022-07-17T00:13:03;99932.79;;;27.20;37.81
61805;BME280;47725;47.912;7.356;2022-07-17T00:17:03;99934.50;;;27.19;37.90
61805;BME280;47725;47.912;7.356;2022-07-17T00:21:03;99934.70;;;27.18;37.87
61805;BME280;47725;47.912;7.356;2022-07-17T00:25:04;99934.86;;;27.18;37.70
61805;BME280;47725;47.912;7.356;2022-07-17T00:29:03;99935.24;;;27.17;37.79
61805;BME280;47725;47.912;7.356;2022-07-17T00:33:03;99935.82;;;27.16;37.88
61805;BME280;47725;47.912;7.356;2022-07-17T00:37:03;99936.60;;;27.15;37.94
61805;BME280;47725;47.912;7.356;2022-07-17T00:41:03;99936.02;;;27.15;37.89
61805;BME280;47725;47.912;7.356;2022-07-17T00:45:03;99936.02;;;27.15;37.74
61805;BME280;47725;47.912;7.356;2022-07-17T00:49:03;99936.02;;;27.15;37.72
61805;BME280;47725;47.912;7.356;2022-07-17T00:53:04;99935.51;;;27.14;37.86
61805;BME280;47725;47.912;7.356;2022-07-17T00:57:04;99936.17;;;27.14;37.93
61805;BME280;47725;47.912;7.356;2022-07-17T01:01:04;99935.42;;;27.14;37.95
61805;BME280;47725;47.912;7.356;2022-07-17T01:05:04;99935.35;;;27.14;37.74
61805;BME280;47725;47.912;7.356;2022-07-17T01:09:03;99935.64;;;27.14;37.77
61805;BME280;47725;47.912;7.356;2022-07-17T01:13:03;99934.88;;;27.13;37.84
61805;BME280;47725;47.912;7.356;2022-07-17T01:17:03;99933.79;;;27.13;37.92
61805;BME280;47725;47.912;7.356;2022-07-17T01:21:04;99932.53;;;27.12;37.92
61805;BME280;47725;47.912;7.356;2022-07-17T01:25:03;99930.36;;;27.12;37.74
61805;BME280;47725;47.912;7.356;2022-07-17T01:29:03;99929.16;;;27.12;37.81
61805;BME280;47725;47.912;7.356;2022-07-17T01:33:03;99927.15;;;27.11;37.85
61805;BME280;47725;47.912;7.356;2022-07-17T01:37:03;99924.69;;;27.11;37.95
61805;BME280;47725;47.912;7.356;2022-07-17T01:41:03;99924.61;;;27.10;37.97
61805;BME280;47725;47.912;7.356;2022-07-17T01:45:03;99924.69;;;27.11;37.74
61805;BME280;47725;47.912;7.356;2022-07-17T01:49:03;99924.10;;;27.10;37.77
61805;BME280;47725;47.912;7.356;2022-07-17T01:53:03;99924.63;;;27.13;37.62
61805;BME280;47725;47.912;7.356;2022-07-17T01:57:03;99924.36;;;27.12;37.89
61805;BME280;47725;47.912;7.356;2022-07-17T02:01:03;99923.74;;;27.12;37.94
61805;BME280;47725;47.912;7.356;2022-07-17T02:05:03;99922.89;;;27.11;37.83
61805;BME280;47725;47.912;7.356;2022-07-17T02:09:03;99922.69;;;27.11;37.77
61805;BME280;47725;47.912;7.356;2022-07-17T02:13:03;99922.19;;;27.10;37.77
61805;BME280;47725;47.912;7.356;2022-07-17T02:17:03;99922.01;;;27.10;37.91
61805;BME280;47725;47.912;7.356;2022-07-17T02:21:03;99922.47;;;27.09;37.97
61805;BME280;47725;47.912;7.356;2022-07-17T02:25:03;99922.22;;;27.09;37.93
61805;BME280;47725;47.912;7.356;2022-07-17T02:29:03;99921.92;;;27.09;37.62
61805;BME280;47725;47.912;7.356;2022-07-17T02:33:03;99920.45;;;27.13;37.43
61805;BME280;47725;47.912;7.356;2022-07-17T02:37:03;99919.50;;;27.15;37.74
61805;BME280;47725;47.912;7.356;2022-07-17T02:41:03;99919.27;;;27.13;37.98
61805;BME280;47725;47.912;7.356;2022-07-17T02:45:03;99918.69;;;27.11;38.03
61805;BME280;47725;47.912;7.356;2022-07-17T02:49:03;99918.59;;;27.09;38.04
61805;BME280;47725;47.912;7.356;2022-07-17T02:53:03;99918.13;;;27.08;38.06
61805;BME280;47725;47.912;7.356;2022-07-17T02:57:03;99917.24;;;27.07;38.10
61805;BME280;47725;47.912;7.356;2022-07-17T03:01:03;99917.24;;;27.07;38.08
61805;BME280;47725;47.912;7.356;2022-07-17T03:05:03;99917.86;;;27.06;38.11
61805;BME280;47725;47.912;7.356;2022-07-17T03:09:03;99918.69;;;27.06;38.11
61805;BME280;47725;47.912;7.356;2022-07-17T03:13:03;99920.11;;;27.05;38.08
61805;BME280;47725;47.912;7.356;2022-07-17T03:17:03;99921.61;;;27.05;38.08
61805;BME280;47725;47.912;7.356;2022-07-17T03:21:03;99921.27;;;27.05;38.02
61805;BME280;47725;47.912;7.356;2022-07-17T03:25:03;99920.94;;;27.05;38.08
61805;BME280;47725;47.912;7.356;2022-07-17T03:29:03;99921.19;;;27.05;38.07
61805;BME280;47725;47.912;7.356;2022-07-17T03:33:03;99921.26;;;27.05;38.08
61805;BME280;47725;47.912;7.356;2022-07-17T03:37:03;99920.98;;;27.04;38.08
61805;BME280;47725;47.912;7.356;2022-07-17T03:41:03;99921.56;;;27.04;38.09
61805;BME280;47725;47.912;7.356;2022-07-17T03:45:03;99921.89;;;27.04;38.08
61805;BME280;47725;47.912;7.356;2022-07-17T03:49:03;99920.48;;;27.04;38.10
61805;BME280;47725;47.912;7.356;2022-07-17T03:53:03;99919.73;;;27.04;38.09
61805;BME280;47725;47.912;7.356;2022-07-17T03:57:03;99918.81;;;27.04;38.08
61805;BME280;47725;47.912;7.356;2022-07-17T04:01:03;99919.41;;;27.07;37.57
61805;BME280;47725;47.912;7.356;2022-07-17T04:05:03;99919.75;;;27.08;38.04
61805;BME280;47725;47.912;7.356;2022-07-17T04:09:03;99920.33;;;27.14;37.37
61805;BME280;47725;47.912;7.356;2022-07-17T04:13:03;99921.03;;;27.13;38.02
61805;BME280;47725;47.912;7.356;2022-07-17T04:17:03;99922.81;;;27.11;38.09
61805;BME280;47725;47.912;7.356;2022-07-17T04:21:07;99924.76;;;27.09;38.11
61805;BME280;47725;47.912;7.356;2022-07-17T04:25:03;99925.04;;;27.08;38.10
61805;BME280;47725;47.912;7.356;2022-07-17T04:29:03;99925.92;;;27.07;38.07
61805;BME280;47725;47.912;7.356;2022-07-17T04:33:03;99926.74;;;27.07;38.07
61805;BME280;47725;47.912;7.356;2022-07-17T04:37:03;99928.54;;;27.06;38.08
61805;BME280;47725;47.912;7.356;2022-07-17T04:41:03;99929.78;;;27.05;38.09
61805;BME280;47725;47.912;7.356;2022-07-17T04:45:03;99931.78;;;27.05;38.11
61805;BME280;47725;47.912;7.356;2022-07-17T04:49:03;99933.49;;;27.04;38.13
61805;BME280;47725;47.912;7.356;2022-07-17T04:53:03;99934.48;;;27.04;38.10
61805;BME280;47725;47.912;7.356;2022-07-17T04:57:03;99934.81;;;27.03;38.13
61805;BME280;47725;47.912;7.356;2022-07-17T05:01:03;99935.49;;;27.03;38.12
61805;BME280;47725;47.912;7.356;2022-07-17T05:05:03;99936.89;;;27.03;38.12
61805;BME280;47725;47.912;7.356;2022-07-17T05:09:03;99939.61;;;27.03;38.14
61805;BME280;47725;47.912;7.356;2022-07-17T05:13:03;99942.78;;;27.03;38.16
61805;BME280;47725;47.912;7.356;2022-07-17T05:17:03;99945.61;;;27.02;38.17
61805;BME280;47725;47.912;7.356;2022-07-17T05:21:03;99948.52;;;27.02;38.15
61805;BME280;47725;47.912;7.356;2022-07-17T05:25:03;99950.11;;;27.02;38.17
61805;BME280;47725;47.912;7.356;2022-07-17T05:29:03;99950.19;;;27.02;38.20
61805;BME280;47725;47.912;7.356;2022-07-17T05:33:03;99951.03;;;27.02;38.21
61805;BME280;47725;47.912;7.356;2022-07-17T05:37:03;99952.95;;;27.05;38.11
61805;BME280;47725;47.912;7.356;2022-07-17T05:41:03;99954.91;;;27.04;38.21
61805;BME280;47725;47.912;7.356;2022-07-17T05:45:03;99956.75;;;27.04;38.13
61805;BME280;47725;47.912;7.356;2022-07-17T05:49:03;99957.92;;;27.04;38.12
61805;BME280;47725;47.912;7.356;2022-07-17T05:53:03;99957.56;;;27.06;37.92
61805;BME280;47725;47.912;7.356;2022-07-17T05:57:03;99959.01;;;27.12;37.64
61805;BME280;47725;47.912;7.356;2022-07-17T06:01:03;99961.89;;;27.10;38.18
61805;BME280;47725;47.912;7.356;2022-07-17T06:05:03;99964.58;;;27.08;38.22
61805;BME280;47725;47.912;7.356;2022-07-17T06:09:03;99966.44;;;27.07;38.21
61805;BME280;47725;47.912;7.356;2022-07-17T06:13:03;99967.89;;;27.05;38.23
61805;BME280;47725;47.912;7.356;2022-07-17T06:17:03;99969.67;;;27.03;38.27
61805;BME280;47725;47.912;7.356;2022-07-17T06:21:03;99972.80;;;27.02;38.28
61805;BME280;47725;47.912;7.356;2022-07-17T06:25:03;99973.75;;;27.01;38.27
61805;BME280;47725;47.912;7.356;2022-07-17T06:29:03;99975.75;;;27.01;38.28
61805;BME280;47725;47.912;7.356;2022-07-17T06:33:03;99977.40;;;27.00;38.30
61805;BME280;47725;47.912;7.356;2022-07-17T06:37:03;99978.53;;;27.00;38.28
61805;BME280;47725;47.912;7.356;2022-07-17T06:41:03;99979.78;;;27.00;38.29
61805;BME280;47725;47.912;7.356;2022-07-17T06:45:03;99979.61;;;26.99;38.26
61805;BME280;47725;47.912;7.356;2022-07-17T06:49:03;99979.53;;;27.00;38.27
61805;BME280;47725;47.912;7.356;2022-07-17T06:53:03;99979.78;;;26.99;38.30
61805;BME280;47725;47.912;7.356;2022-07-17T06:57:03;99980.60;;;26.99;38.30
61805;BME280;47725;47.912;7.356;2022-07-17T07:01:03;99981.31;;;26.98;38.30
61805;BME280;47725;47.912;7.356;2022-07-17T07:05:03;99983.33;;;27.00;38.09
61805;BME280;47725;47.912;7.356;2022-07-17T07:09:03;99984.25;;;27.00;38.27
61805;BME280;47725;47.912;7.356;2022-07-17T07:13:02;99984.54;;;27.00;38.31
61805;BME280;47725;47.912;7.356;2022-07-17T07:17:02;99985.88;;;27.00;38.29
61805;BME280;47725;47.912;7.356;2022-07-17T07:21:02;99985.83;;;27.01;38.11
61805;BME280;47725;47.912;7.356;2022-07-17T07:25:03;99985.50;;;27.01;38.25
61805;BME280;47725;47.912;7.356;2022-07-17T07:29:02;99985.30;;;27.02;38.10
61805;BME280;47725;47.912;7.356;2022-07-17T07:33:02;99985.13;;;27.02;38.22
61805;BME280;47725;47.912;7.356;2022-07-17T07:37:02;99986.19;;;27.03;38.19
61805;BME280;47725;47.912;7.356;2022-07-17T07:41:02;99986.69;;;27.03;38.22
61805;BME280;47725;47.912;7.356;2022-07-17T07:45:03;99986.19;;;27.03;38.27
61805;BME280;47725;47.912;7.356;2022-07-17T07:49:02;99986.56;;;27.03;38.33
61805;BME280;47725;47.912;7.356;2022-07-17T07:53:02;99987.47;;;27.02;38.29
61805;BME280;47725;47.912;7.356;2022-07-17T07:57:03;99987.81;;;27.03;38.20
61805;BME280;47725;47.912;7.356;2022-07-17T08:01:03;99988.31;;;27.03;38.28
61805;BME280;47725;47.912;7.356;2022-07-17T08:05:03;99988.03;;;27.04;38.27
61805;BME280;47725;47.912;7.356;2022-07-17T08:09:02;99986.61;;;27.04;38.32
61805;BME280;47725;47.912;7.356;2022-07-17T08:13:02;99985.21;;;27.04;38.29
61805;BME280;47725;47.912;7.356;2022-07-17T08:17:02;99984.41;;;27.06;38.18
61805;BME280;47725;47.912;7.356;2022-07-17T08:21:03;99983.74;;;27.06;38.30
61805;BME280;47725;47.912;7.356;2022-07-17T08:25:03;99984.08;;;27.06;38.32
61805;BME280;47725;47.912;7.356;2022-07-17T08:29:02;99983.97;;;27.08;38.32
61805;BME280;47725;47.912;7.356;2022-07-17T08:33:03;99984.71;;;27.07;38.39
61805;BME280;47725;47.912;7.356;2022-07-17T08:37:02;99983.87;;;27.06;38.39
61805;BME280;47725;47.912;7.356;2022-07-17T08:41:03;99983.75;;;27.06;38.41
61805;BME280;47725;47.912;7.356;2022-07-17T08:45:03;99985.25;;;27.06;38.40
61805;BME280;47725;47.912;7.356;2022-07-17T08:49:03;99986.17;;;27.06;38.41
61805;BME280;47725;47.912;7.356;2022-07-17T08:53:03;99986.83;;;27.06;38.36
61805;BME280;47725;47.912;7.356;2022-07-17T08:57:03;99989.54;;;27.06;38.33
61805;BME280;47725;47.912;7.356;2022-07-17T09:01:02;99991.14;;;27.07;38.29
61805;BME280;47725;47.912;7.356;2022-07-17T09:05:03;99992.44;;;27.08;38.31
61805;BME280;47725;47.912;7.356;2022-07-17T09:09:07;99994.03;;;27.09;38.30
61805;BME280;47725;47.912;7.356;2022-07-17T09:13:13;99997.17;;;27.10;38.15
61805;BME280;47725;47.912;7.356;2022-07-17T09:17:03;99999.30;;;27.11;38.29
61805;BME280;47725;47.912;7.356;2022-07-17T09:21:03;100001.47;;;27.11;38.33
61805;BME280;47725;47.912;7.356;2022-07-17T09:25:03;100003.47;;;27.12;38.30
61805;BME280;47725;47.912;7.356;2022-07-17T09:29:03;100004.32;;;27.12;38.30
61805;BME280;47725;47.912;7.356;2022-07-17T09:33:05;100004.61;;;27.13;38.25
61805;BME280;47725;47.912;7.356;2022-07-17T09:37:02;100003.62;;;27.13;38.28
61805;BME280;47725;47.912;7.356;2022-07-17T09:41:07;100003.66;;;27.14;38.28
61805;BME280;47725;47.912;7.356;2022-07-17T09:45:04;100002.83;;;27.15;38.24
61805;BME280;47725;47.912;7.356;2022-07-17T09:49:03;100000.33;;;27.15;38.23
61805;BME280;47725;47.912;7.356;2022-07-17T09:53:02;99998.71;;;27.16;38.20
61805;BME280;47725;47.912;7.356;2022-07-17T09:57:02;99996.92;;;27.17;38.20
61805;BME280;47725;47.912;7.356;2022-07-17T10:01:02;99994.85;;;27.18;38.18
61805;BME280;47725;47.912;7.356;2022-07-17T10:05:03;99992.56;;;27.19;38.19
61805;BME280;47725;47.912;7.356;2022-07-17T10:09:02;99991.11;;;27.20;38.18
61805;BME280;47725;47.912;7.356;2022-07-17T10:13:02;99988.95;;;27.21;38.16
61805;BME280;47725;47.912;7.356;2022-07-17T10:17:06;99987.62;;;27.24;37.99
61805;BME280;47725;47.912;7.356;2022-07-17T10:21:06;99986.77;;;27.28;37.83
61805;BME280;47725;47.912;7.356;2022-07-17T10:25:03;99986.89;;;27.33;37.68
61805;BME280;47725;47.912;7.356;2022-07-17T10:29:03;99985.38;;;27.38;37.70
61805;BME280;47725;47.912;7.356;2022-07-17T10:33:05;99984.19;;;27.43;37.97
61805;BME280;47725;47.912;7.356;2022-07-17T10:37:08;99983.09;;;27.47;38.13
61805;BME280;47725;47.912;7.356;2022-07-17T10:41:03;99980.99;;;27.52;38.03
61805;BME280;47725;47.912;7.356;2022-07-17T10:49:02;99973.47;;;27.59;38.00
61805;BME280;47725;47.912;7.356;2022-07-17T10:53:04;99970.51;;;27.61;38.02
61805;BME280;47725;47.912;7.356;2022-07-17T10:57:02;99967.91;;;27.66;37.83
61805;BME280;47725;47.912;7.356;2022-07-17T11:01:04;99966.20;;;27.67;37.77
61805;BME280;47725;47.912;7.356;2022-07-17T11:05:06;99965.09;;;27.72;37.56
61805;BME280;47725;47.912;7.356;2022-07-17T11:09:04;99963.81;;;27.73;38.03
61805;BME280;47725;47.912;7.356;2022-07-17T11:13:09;99963.34;;;27.74;37.93
61805;BME280;47725;47.912;7.356;2022-07-17T11:17:02;99962.44;;;27.75;37.67
61805;BME280;47725;47.912;7.356;2022-07-17T11:21:03;99960.15;;;27.76;37.70
61805;BME280;47725;47.912;7.356;2022-07-17T11:25:03;99958.36;;;27.80;37.07
61805;BME280;47725;47.912;7.356;2022-07-17T11:29:02;99956.05;;;27.84;37.38
61805;BME280;47725;47.912;7.356;2022-07-17T11:33:03;99953.25;;;27.83;37.53
61805;BME280;47725;47.912;7.356;2022-07-17T11:37:03;99950.11;;;27.81;37.50
61805;BME280;47725;47.912;7.356;2022-07-17T11:41:02;99947.51;;;27.80;37.56
61805;BME280;47725;47.912;7.356;2022-07-17T11:45:03;99944.30;;;27.79;37.50
61805;BME280;47725;47.912;7.356;2022-07-17T11:49:03;99941.66;;;27.78;37.45
61805;BME280;47725;47.912;7.356;2022-07-17T11:53:03;99938.32;;;27.78;37.42
61805;BME280;47725;47.912;7.356;2022-07-17T11:57:02;99935.31;;;27.78;37.39
61805;BME280;47725;47.912;7.356;2022-07-17T12:01:03;99933.11;;;27.79;37.10
61805;BME280;47725;47.912;7.356;2022-07-17T12:05:03;99932.14;;;27.80;37.30
61805;BME280;47725;47.912;7.356;2022-07-17T12:09:02;99930.86;;;27.80;37.35
61805;BME280;47725;47.912;7.356;2022-07-17T12:13:05;99929.43;;;27.79;37.45
61805;BME280;47725;47.912;7.356;2022-07-17T12:17:03;99929.22;;;27.78;37.49
61805;BME280;47725;47.912;7.356;2022-07-17T12:21:03;99927.04;;;27.77;37.49
61805;BME280;47725;47.912;7.356;2022-07-17T12:25:03;99924.33;;;27.76;37.49
61805;BME280;47725;47.912;7.356;2022-07-17T12:29:02;99922.71;;;27.75;37.46
61805;BME280;47725;47.912;7.356;2022-07-17T12:33:04;99920.76;;;27.74;37.49
61805;BME280;47725;47.912;7.356;2022-07-17T12:37:02;99919.61;;;27.75;37.93
61805;BME280;47725;47.912;7.356;2022-07-17T12:41:02;99918.02;;;27.77;37.87
61805;BME280;47725;47.912;7.356;2022-07-17T12:45:03;99917.63;;;27.81;37.77
61805;BME280;47725;47.912;7.356;2022-07-17T12:49:02;99916.25;;;27.83;37.81
61805;BME280;47725;47.912;7.356;2022-07-17T12:53:02;99915.12;;;27.83;37.81
61805;BME280;47725;47.912;7.356;2022-07-17T12:57:02;99913.37;;;27.83;37.94
61805;BME280;47725;47.912;7.356;2022-07-17T13:01:03;99910.82;;;27.82;38.01
61805;BME280;47725;47.912;7.356;2022-07-17T13:05:02;99909.28;;;27.81;38.08
61805;BME280;47725;47.912;7.356;2022-07-17T13:09:02;99907.76;;;27.80;38.06
61805;BME280;47725;47.912;7.356;2022-07-17T13:13:02;99907.31;;;27.79;38.08
61805;BME280;47725;47.912;7.356;2022-07-17T13:17:02;99906.22;;;27.79;38.12
61805;BME280;47725;47.912;7.356;2022-07-17T13:21:02;99904.85;;;27.78;38.11
61805;BME280;47725;47.912;7.356;2022-07-17T13:25:03;99902.59;;;27.78;38.08
61805;BME280;47725;47.912;7.356;2022-07-17T13:29:02;99899.99;;;27.78;38.11
61805;BME280;47725;47.912;7.356;2022-07-17T13:33:02;99898.49;;;27.78;38.10
61805;BME280;47725;47.912;7.356;2022-07-17T13:37:02;99894.98;;;27.78;38.08
61805;BME280;47725;47.912;7.356;2022-07-17T13:41:02;99891.30;;;27.77;38.17
61805;BME280;47725;47.912;7.356;2022-07-17T13:45:02;99888.97;;;27.77;38.12
61805;BME280;47725;47.912;7.356;2022-07-17T13:49:02;99887.22;;;27.77;38.17
61805;BME280;47725;47.912;7.356;2022-07-17T13:53:02;99886.13;;;27.78;38.12
61805;BME280;47725;47.912;7.356;2022-07-17T13:57:02;99885.64;;;27.78;38.12
61805;BME280;47725;47.912;7.356;2022-07-17T14:01:02;99885.33;;;27.79;38.11
61805;BME280;47725;47.912;7.356;2022-07-17T14:05:06;99885.02;;;27.80;38.09
61805;BME280;47725;47.912;7.356;2022-07-17T14:09:02;99883.92;;;27.82;38.08
61805;BME280;47725;47.912;7.356;2022-07-17T14:13:02;99882.81;;;27.84;37.89
61805;BME280;47725;47.912;7.356;2022-07-17T14:17:02;99881.14;;;27.84;37.86
61805;BME280;47725;47.912;7.356;2022-07-17T14:21:02;99878.55;;;27.83;37.74
61805;BME280;47725;47.912;7.356;2022-07-17T14:25:03;99875.83;;;27.82;37.67
61805;BME280;47725;47.912;7.356;2022-07-17T14:29:02;99873.36;;;27.81;37.63
61805;BME280;47725;47.912;7.356;2022-07-17T14:33:02;99870.73;;;27.80;37.54
61805;BME280;47725;47.912;7.356;2022-07-17T14:37:02;99868.31;;;27.80;37.63
61805;BME280;47725;47.912;7.356;2022-07-17T14:41:02;99865.89;;;27.80;37.58
61805;BME280;47725;47.912;7.356;2022-07-17T14:45:02;99864.14;;;27.79;37.71
61805;BME280;47725;47.912;7.356;2022-07-17T14:49:02;99862.21;;;27.79;37.66
61805;BME280;47725;47.912;7.356;2022-07-17T14:53:02;99860.79;;;27.79;37.68
61805;BME280;47725;47.912;7.356;2022-07-17T14:57:02;99859.25;;;27.78;37.76
61805;BME280;47725;47.912;7.356;2022-07-17T15:01:02;99857.08;;;27.78;37.72
61805;BME280;47725;47.912;7.356;2022-07-17T15:05:02;99854.99;;;27.77;37.72
61805;BME280;47725;47.912;7.356;2022-07-17T15:09:02;99852.95;;;27.77;37.80
61805;BME280;47725;47.912;7.356;2022-07-17T15:13:02;99850.76;;;27.76;37.71
61805;BME280;47725;47.912;7.356;2022-07-17T15:17:02;99849.19;;;27.76;37.66
61805;BME280;47725;47.912;7.356;2022-07-17T15:21:02;99847.26;;;27.76;37.80
61805;BME280;47725;47.912;7.356;2022-07-17T15:25:02;99844.84;;;27.76;37.90
61805;BME280;47725;47.912;7.356;2022-07-17T15:29:02;99844.22;;;27.77;37.77
61805;BME280;47725;47.912;7.356;2022-07-17T15:33:02;99842.38;;;27.78;37.85
61805;BME280;47725;47.912;7.356;2022-07-17T15:37:02;99841.38;;;27.78;37.80
61805;BME280;47725;47.912;7.356;2022-07-17T15:41:02;99839.75;;;27.77;37.78
61805;BME280;47725;47.912;7.356;2022-07-17T15:45:02;99839.50;;;27.77;37.84
61805;BME280;47725;47.912;7.356;2022-07-17T15:49:02;99838.83;;;27.76;37.91
61805;BME280;47725;47.912;7.356;2022-07-17T15:53:02;99837.41;;;27.76;37.90
61805;BME280;47725;47.912;7.356;2022-07-17T15:57:02;99836.24;;;27.76;37.74
61805;BME280;47725;47.912;7.356;2022-07-17T16:01:02;99834.66;;;27.77;37.76
61805;BME280;47725;47.912;7.356;2022-07-17T16:05:02;99832.82;;;27.76;37.80
61805;BME280;47725;47.912;7.356;2022-07-17T16:09:02;99829.89;;;27.76;38.14
61805;BME280;47725;47.912;7.356;2022-07-17T16:13:02;99827.34;;;27.77;38.06
61805;BME280;47725;47.912;7.356;2022-07-17T16:17:02;99826.10;;;27.80;37.82
61805;BME280;47725;47.912;7.356;2022-07-17T16:21:02;99823.32;;;27.82;37.81
61805;BME280;47725;47.912;7.356;2022-07-17T16:25:02;99820.39;;;27.83;37.81
61805;BME280;47725;47.912;7.356;2022-07-17T16:29:02;99817.67;;;27.83;37.91
61805;BME280;47725;47.912;7.356;2022-07-17T16:33:02;99816.05;;;27.83;37.95
61805;BME280;47725;47.912;7.356;2022-07-17T16:37:02;99814.04;;;27.82;37.92
61805;BME280;47725;47.912;7.356;2022-07-17T16:41:02;99811.61;;;27.82;37.85
61805;BME280;47725;47.912;7.356;2022-07-17T16:45:03;99809.74;;;27.81;37.92
61805;BME280;47725;47.912;7.356;2022-07-17T16:49:02;99807.86;;;27.80;38.09
61805;BME280;47725;47.912;7.356;2022-07-17T16:53:02;99807.93;;;27.79;38.11
61805;BME280;47725;47.912;7.356;2022-07-17T16:57:02;99807.32;;;27.78;37.97
61805;BME280;47725;47.912;7.356;2022-07-17T17:01:02;99806.73;;;27.78;38.17
61805;BME280;47725;47.912;7.356;2022-07-17T17:05:02;99805.61;;;27.79;38.17
61805;BME280;47725;47.912;7.356;2022-07-17T17:09:02;99804.81;;;27.81;37.87
61805;BME280;47725;47.912;7.356;2022-07-17T17:13:02;99803.86;;;27.82;37.62
61805;BME280;47725;47.912;7.356;2022-07-17T17:17:02;99802.19;;;27.82;37.47
61805;BME280;47725;47.912;7.356;2022-07-17T17:21:02;99801.44;;;27.82;37.57
61805;BME280;47725;47.912;7.356;2022-07-17T17:25:02;99801.39;;;27.83;37.55
61805;BME280;47725;47.912;7.356;2022-07-17T17:29:02;99800.85;;;27.85;37.42
61805;BME280;47725;47.912;7.356;2022-07-17T17:33:02;99800.15;;;27.87;37.40
61805;BME280;47725;47.912;7.356;2022-07-17T17:37:02;99800.95;;;27.89;37.54
61805;BME280;47725;47.912;7.356;2022-07-17T17:41:02;99800.53;;;27.91;37.15
61805;BME280;47725;47.912;7.356;2022-07-17T17:45:02;99799.49;;;27.93;37.07
61805;BME280;47725;47.912;7.356;2022-07-17T17:49:02;99800.31;;;27.93;37.10
61805;BME280;47725;47.912;7.356;2022-07-17T17:53:02;99800.40;;;27.92;36.96
61805;BME280;47725;47.912;7.356;2022-07-17T17:57:02;99800.36;;;27.92;36.87
61805;BME280;47725;47.912;7.356;2022-07-17T18:01:02;99801.19;;;27.91;36.71
61805;BME280;47725;47.912;7.356;2022-07-17T18:05:02;99801.11;;;27.88;36.62
61805;BME280;47725;47.912;7.356;2022-07-17T18:09:03;99801.19;;;27.85;36.99
61805;BME280;47725;47.912;7.356;2022-07-17T18:13:02;99802.90;;;27.84;36.87
61805;BME280;47725;47.912;7.356;2022-07-17T18:17:02;99804.65;;;27.84;37.09
61805;BME280;47725;47.912;7.356;2022-07-17T18:21:02;99807.08;;;27.84;36.77
61805;BME280;47725;47.912;7.356;2022-07-17T18:25:03;99809.58;;;27.83;36.48
61805;BME280;47725;47.912;7.356;2022-07-17T18:29:02;99811.80;;;27.83;36.46
61805;BME280;47725;47.912;7.356;2022-07-17T18:33:02;99813.90;;;27.80;36.44
61805;BME280;47725;47.912;7.356;2022-07-17T18:37:02;99815.41;;;27.77;36.39
61805;BME280;47725;47.912;7.356;2022-07-17T18:41:02;99817.28;;;27.76;35.68
61805;BME280;47725;47.912;7.356;2022-07-17T18:45:03;99819.20;;;27.76;35.51
61805;BME280;47725;47.912;7.356;2022-07-17T18:49:02;99819.92;;;27.75;35.55
61805;BME280;47725;47.912;7.356;2022-07-17T18:53:02;99821.04;;;27.73;35.56
61805;BME280;47725;47.912;7.356;2022-07-17T18:57:02;99822.33;;;27.71;35.50
61805;BME280;47725;47.912;7.356;2022-07-17T19:01:02;99823.38;;;27.72;34.93
61805;BME280;47725;47.912;7.356;2022-07-17T19:05:02;99825.83;;;27.71;35.22
61805;BME280;47725;47.912;7.356;2022-07-17T19:09:03;99828.25;;;27.68;35.25
61805;BME280;47725;47.912;7.356;2022-07-17T19:13:02;99829.16;;;27.66;34.70
61805;BME280;47725;47.912;7.356;2022-07-17T19:17:02;99833.47;;;27.65;34.84
61805;BME280;47725;47.912;7.356;2022-07-17T19:21:02;99838.00;;;27.62;34.98
61805;BME280;47725;47.912;7.356;2022-07-17T19:25:02;99842.38;;;27.61;34.91
61805;BME280;47725;47.912;7.356;2022-07-17T19:29:02;99845.56;;;27.61;34.62
61805;BME280;47725;47.912;7.356;2022-07-17T19:33:02;99848.94;;;27.63;34.35
61805;BME280;47725;47.912;7.356;2022-07-17T19:37:02;99852.08;;;27.64;34.41
61805;BME280;47725;47.912;7.356;2022-07-17T19:41:02;99856.34;;;27.65;34.48
61805;BME280;47725;47.912;7.356;2022-07-17T19:45:02;99861.18;;;27.65;34.51
61805;BME280;47725;47.912;7.356;2022-07-17T19:49:02;99866.14;;;27.63;34.56
61805;BME280;47725;47.912;7.356;2022-07-17T19:53:02;99870.22;;;27.60;34.71
61805;BME280;47725;47.912;7.356;2022-07-17T19:57:02;99874.10;;;27.58;34.50
61805;BME280;47725;47.912;7.356;2022-07-17T20:01:02;99877.76;;;27.57;34.47
61805;BME280;47725;47.912;7.356;2022-07-17T20:05:02;99881.31;;;27.57;34.48
61805;BME280;47725;47.912;7.356;2022-07-17T20:09:02;99883.85;;;27.55;34.66
61805;BME280;47725;47.912;7.356;2022-07-17T20:13:02;99885.80;;;27.53;34.93
61805;BME280;47725;47.912;7.356;2022-07-17T20:17:02;99889.04;;;27.51;35.13
61805;BME280;47725;47.912;7.356;2022-07-17T20:21:02;99892.85;;;27.49;35.36
61805;BME280;47725;47.912;7.356;2022-07-17T20:25:02;99895.72;;;27.48;35.48
61805;BME280;47725;47.912;7.356;2022-07-17T20:29:02;99897.30;;;27.47;35.54
61805;BME280;47725;47.912;7.356;2022-07-17T20:33:02;99898.05;;;27.47;35.52
61805;BME280;47725;47.912;7.356;2022-07-17T20:37:02;99899.34;;;27.48;35.53
61805;BME280;47725;47.912;7.356;2022-07-17T20:41:02;99899.69;;;27.49;35.73
61805;BME280;47725;47.912;7.356;2022-07-17T20:45:02;99900.69;;;27.49;35.93
61805;BME280;47725;47.912;7.356;2022-07-17T20:49:02;99901.09;;;27.48;36.16
61805;BME280;47725;47.912;7.356;2022-07-17T20:53:02;99901.39;;;27.48;36.21
61805;BME280;47725;47.912;7.356;2022-07-17T20:57:02;99901.39;;;27.48;36.19
61805;BME280;47725;47.912;7.356;2022-07-17T21:01:02;99901.73;;;27.48;36.22
61805;BME280;47725;47.912;7.356;2022-07-17T21:05:02;99901.97;;;27.47;36.33
61805;BME280;47725;47.912;7.356;2022-07-17T21:09:02;99902.39;;;27.47;36.49
61805;BME280;47725;47.912;7.356;2022-07-17T21:13:02;99900.97;;;27.47;36.81